sensor_id;sensor_type;location;lat;lon;timestamp;P1;P2;P0
79141;PMS5003;68550;-26.480;29.234;2023-10-19T00:01:16;28;27;
79141;PMS5003;68550;-26.480;29.234;2023-10-19T00:25:32;21;21;
79141;PMS5003;68550;-26.480;29.234;2023-10-19T00:27:57;23;22;
79141;PMS5003;68550;-26.480;29.234;2023-10-19T00:44:55;21;20;
79141;PMS5003;68550;-26.480;29.234;2023-10-19T00:47:21;23;22;
79141;PMS5003;68550;-26.480;29.234;2023-10-19T00:49:46;20;18;
79141;PMS5003;68550;-26.480;29.234;2023-10-19T00:52:11;24;24;
79141;PMS5003;68550;-26.480;29.234;2023-10-19T00:54:38;21;20;
79141;PMS5003;68550;-26.480;29.234;2023-10-19T00:57:03;19;19;
79141;PMS5003;68550;-26.480;29.234;2023-10-19T00:59:28;20;20;
79141;PMS5003;68550;-26.480;29.234;2023-10-19T01:01:54;19;18;
79141;PMS5003;68550;-26.480;29.234;2023-10-19T01:14:00;19;19;
79141;PMS5003;68550;-26.480;29.234;2023-10-19T01:26:07;18;17;
79141;PMS5003;68550;-26.480;29.234;2023-10-19T01:28:34;19;18;
79141;PMS5003;68550;-26.480;29.234;2023-10-19T01:45:30;17;17;
79141;PMS5003;68550;-26.480;29.234;2023-10-19T01:47:55;21;21;
79141;PMS5003;68550;-26.480;29.234;2023-10-19T01:50:21;21;19;
79141;PMS5003;68550;-26.480;29.234;2023-10-19T01:52:47;18;18;
79141;PMS5003;68550;-26.480;29.234;2023-10-19T01:55:13;19;19;
79141;PMS5003;68550;-26.480;29.234;2023-10-19T01:57:37;19;17;
79141;PMS5003;68550;-26.480;29.234;2023-10-19T02:00:03;18;18;
79141;PMS5003;68550;-26.480;29.234;2023-10-19T02:02:28;19;19;
79141;PMS5003;68550;-26.480;29.234;2023-10-19T02:04:55;18;18;
79141;PMS5003;68550;-26.480;29.234;2023-10-19T02:07:21;17;16;
79141;PMS5003;68550;-26.480;29.234;2023-10-19T02:09:44;18;17;
79141;PMS5003;68550;-26.480;29.234;2023-10-19T02:12:10;17;17;
79141;PMS5003;68550;-26.480;29.234;2023-10-19T02:14:35;21;20;
79141;PMS5003;68550;-26.480;29.234;2023-10-19T02:17:02;18;18;
79141;PMS5003;68550;-26.480;29.234;2023-10-19T02:19:26;17;17;
79141;PMS5003;68550;-26.480;29.234;2023-10-19T02:24:16;19;18;
79141;PMS5003;68550;-26.480;29.234;2023-10-19T02:29:08;17;17;
79141;PMS5003;68550;-26.480;29.234;2023-10-19T02:31:32;21;20;
79141;PMS5003;68550;-26.480;29.234;2023-10-19T02:33:58;20;18;
79141;PMS5003;68550;-26.480;29.234;2023-10-19T02:36:23;19;19;
79141;PMS5003;68550;-26.480;29.234;2023-10-19T02:38:48;20;20;
79141;PMS5003;68550;-26.480;29.234;2023-10-19T02:41:18;18;18;
79141;PMS5003;68550;-26.480;29.234;2023-10-19T02:46:05;19;19;
79141;PMS5003;68550;-26.480;29.234;2023-10-19T02:48:30;17;17;
79141;PMS5003;68550;-26.480;29.234;2023-10-19T02:50:56;19;19;
79141;PMS5003;68550;-26.480;29.234;2023-10-19T02:53:22;17;16;
79141;PMS5003;68550;-26.480;29.234;2023-10-19T02:55:47;18;18;
79141;PMS5003;68550;-26.480;29.234;2023-10-19T02:58:12;19;18;
79141;PMS5003;68550;-26.480;29.234;2023-10-19T03:00:37;18;18;
79141;PMS5003;68550;-26.480;29.234;2023-10-19T03:03:03;20;19;
79141;PMS5003;68550;-26.480;29.234;2023-10-19T03:12:44;23;22;
79141;PMS5003;68550;-26.480;29.234;2023-10-19T03:20:00;23;20;
79141;PMS5003;68550;-26.480;29.234;2023-10-19T03:24:51;24;23;
79141;PMS5003;68550;-26.480;29.234;2023-10-19T03:27:16;24;21;
79141;PMS5003;68550;-26.480;29.234;2023-10-19T03:29:44;41;29;
79141;PMS5003;68550;-26.480;29.234;2023-10-19T03:32:08;26;25;
79141;PMS5003;68550;-26.480;29.234;2023-10-19T03:34:34;24;22;
79141;PMS5003;68550;-26.480;29.234;2023-10-19T03:36:59;20;18;
79141;PMS5003;68550;-26.480;29.234;2023-10-19T03:39:24;24;21;
79141;PMS5003;68550;-26.480;29.234;2023-10-19T03:41:51;28;26;
79141;PMS5003;68550;-26.480;29.234;2023-10-19T03:44:16;25;25;
79141;PMS5003;68550;-26.480;29.234;2023-10-19T03:46:41;21;20;
79141;PMS5003;68550;-26.480;29.234;2023-10-19T03:49:06;21;20;
79141;PMS5003;68550;-26.480;29.234;2023-10-19T03:53:56;19;18;
79141;PMS5003;68550;-26.480;29.234;2023-10-19T03:56:22;24;24;
79141;PMS5003;68550;-26.480;29.234;2023-10-19T04:32:44;22;19;
79141;PMS5003;68550;-26.480;29.234;2023-10-19T04:42:43;22;21;
79141;PMS5003;68550;-26.480;29.234;2023-10-19T04:47:17;17;16;
79141;PMS5003;68550;-26.480;29.234;2023-10-19T04:49:42;16;16;
79141;PMS5003;68550;-26.480;29.234;2023-10-19T04:54:33;16;15;
79141;PMS5003;68550;-26.480;29.234;2023-10-19T04:56:58;18;17;
79141;PMS5003;68550;-26.480;29.234;2023-10-19T05:01:50;21;16;
79141;PMS5003;68550;-26.480;29.234;2023-10-19T05:04:16;14;14;
79141;PMS5003;68550;-26.480;29.234;2023-10-19T05:06:42;19;18;
79141;PMS5003;68550;-26.480;29.234;2023-10-19T05:09:06;15;15;
79141;PMS5003;68550;-26.480;29.234;2023-10-19T05:11:32;16;15;
79141;PMS5003;68550;-26.480;29.234;2023-10-19T05:13:56;14;14;
79141;PMS5003;68550;-26.480;29.234;2023-10-19T05:16:21;16;15;
79141;PMS5003;68550;-26.480;29.234;2023-10-19T05:18:47;20;20;
79141;PMS5003;68550;-26.480;29.234;2023-10-19T05:21:13;20;19;
79141;PMS5003;68550;-26.480;29.234;2023-10-19T05:23:38;14;13;
79141;PMS5003;68550;-26.480;29.234;2023-10-19T05:26:04;15;15;
79141;PMS5003;68550;-26.480;29.234;2023-10-19T05:33:20;13;13;
79141;PMS5003;68550;-26.480;29.234;2023-10-19T05:35:45;17;14;
79141;PMS5003;68550;-26.480;29.234;2023-10-19T05:38:11;13;12;
79141;PMS5003;68550;-26.480;29.234;2023-10-19T05:40:37;17;16;
79141;PMS5003;68550;-26.480;29.234;2023-10-19T05:47:52;13;13;
79141;PMS5003;68550;-26.480;29.234;2023-10-19T05:50:18;15;14;
79141;PMS5003;68550;-26.480;29.234;2023-10-19T05:57:34;10;10;
79141;PMS5003;68550;-26.480;29.234;2023-10-19T06:00:00;9;9;
79141;PMS5003;68550;-26.480;29.234;2023-10-19T06:02:25;10;10;
79141;PMS5003;68550;-26.480;29.234;2023-10-19T06:09:54;10;10;
79141;PMS5003;68550;-26.480;29.234;2023-10-19T06:24:14;10;10;
79141;PMS5003;68550;-26.480;29.234;2023-10-19T06:31:30;13;13;
79141;PMS5003;68550;-26.480;29.234;2023-10-19T06:33:56;16;13;
79141;PMS5003;68550;-26.480;29.234;2023-10-19T06:36:21;16;16;
79141;PMS5003;68550;-26.480;29.234;2023-10-19T06:58:12;11;11;
79141;PMS5003;68550;-26.480;29.234;2023-10-19T07:00:35;8;8;
79141;PMS5003;68550;-26.480;29.234;2023-10-19T07:03:00;10;10;
79141;PMS5003;68550;-26.480;29.234;2023-10-19T07:12:43;13;11;
79141;PMS5003;68550;-26.480;29.234;2023-10-19T07:27:14;13;11;
79141;PMS5003;68550;-26.480;29.234;2023-10-19T07:46:37;11;11;
79141;PMS5003;68550;-26.480;29.234;2023-10-19T07:49:03;13;13;
79141;PMS5003;68550;-26.480;29.234;2023-10-19T07:58:45;13;13;
79141;PMS5003;68550;-26.480;29.234;2023-10-19T08:01:10;19;14;
79141;PMS5003;68550;-26.480;29.234;2023-10-19T08:15:42;14;14;
79141;PMS5003;68550;-26.480;29.234;2023-10-19T08:18:08;18;17;
79141;PMS5003;68550;-26.480;29.234;2023-10-19T08:20:33;16;16;
79141;PMS5003;68550;-26.480;29.234;2023-10-19T08:22:59;17;15;
79141;PMS5003;68550;-26.480;29.234;2023-10-19T08:25:24;14;12;
79141;PMS5003;68550;-26.480;29.234;2023-10-19T08:27:50;16;13;
79141;PMS5003;68550;-26.480;29.234;2023-10-19T08:30:15;13;13;
79141;PMS5003;68550;-26.480;29.234;2023-10-19T08:32:40;14;13;
79141;PMS5003;68550;-26.480;29.234;2023-10-19T08:35:06;15;14;
79141;PMS5003;68550;-26.480;29.234;2023-10-19T08:37:31;15;15;
79141;PMS5003;68550;-26.480;29.234;2023-10-19T08:39:57;16;16;
79141;PMS5003;68550;-26.480;29.234;2023-10-19T08:42:23;16;16;
79141;PMS5003;68550;-26.480;29.234;2023-10-19T08:44:48;19;17;
79141;PMS5003;68550;-26.480;29.234;2023-10-19T08:47:13;22;21;
79141;PMS5003;68550;-26.480;29.234;2023-10-19T08:49:38;14;13;
79141;PMS5003;68550;-26.480;29.234;2023-10-19T08:52:04;17;15;
79141;PMS5003;68550;-26.480;29.234;2023-10-19T08:54:29;17;16;
79141;PMS5003;68550;-26.480;29.234;2023-10-19T08:56:54;18;17;
79141;PMS5003;68550;-26.480;29.234;2023-10-19T08:59:19;17;16;
79141;PMS5003;68550;-26.480;29.234;2023-10-19T09:01:45;20;20;
79141;PMS5003;68550;-26.480;29.234;2023-10-19T09:04:10;17;17;
79141;PMS5003;68550;-26.480;29.234;2023-10-19T09:06:37;16;16;
79141;PMS5003;68550;-26.480;29.234;2023-10-19T09:09:01;14;13;
79141;PMS5003;68550;-26.480;29.234;2023-10-19T09:11:26;16;16;
79141;PMS5003;68550;-26.480;29.234;2023-10-19T09:13:52;19;18;
79141;PMS5003;68550;-26.480;29.234;2023-10-19T09:16:18;19;19;
79141;PMS5003;68550;-26.480;29.234;2023-10-19T09:18:42;17;17;
79141;PMS5003;68550;-26.480;29.234;2023-10-19T09:21:10;18;18;
79141;PMS5003;68550;-26.480;29.234;2023-10-19T09:23:36;17;17;
79141;PMS5003;68550;-26.480;29.234;2023-10-19T09:25:59;17;16;
79141;PMS5003;68550;-26.480;29.234;2023-10-19T09:28:24;17;17;
79141;PMS5003;68550;-26.480;29.234;2023-10-19T09:30:50;17;17;
79141;PMS5003;68550;-26.480;29.234;2023-10-19T09:33:14;17;17;
79141;PMS5003;68550;-26.480;29.234;2023-10-19T09:35:40;17;16;
79141;PMS5003;68550;-26.480;29.234;2023-10-19T09:38:05;17;16;
79141;PMS5003;68550;-26.480;29.234;2023-10-19T09:40:30;18;18;
79141;PMS5003;68550;-26.480;29.234;2023-10-19T09:42:56;16;15;
79141;PMS5003;68550;-26.480;29.234;2023-10-19T09:45:21;15;15;
79141;PMS5003;68550;-26.480;29.234;2023-10-19T09:47:49;18;17;
79141;PMS5003;68550;-26.480;29.234;2023-10-19T09:50:12;15;15;
79141;PMS5003;68550;-26.480;29.234;2023-10-19T09:52:39;19;18;
79141;PMS5003;68550;-26.480;29.234;2023-10-19T09:55:06;18;18;
79141;PMS5003;68550;-26.480;29.234;2023-10-19T09:57:30;21;20;
79141;PMS5003;68550;-26.480;29.234;2023-10-19T09:59:58;20;20;
79141;PMS5003;68550;-26.480;29.234;2023-10-19T10:02:19;20;20;
79141;PMS5003;68550;-26.480;29.234;2023-10-19T10:04:44;19;18;
79141;PMS5003;68550;-26.480;29.234;2023-10-19T10:07:09;22;20;
79141;PMS5003;68550;-26.480;29.234;2023-10-19T10:09:36;21;19;
79141;PMS5003;68550;-26.480;29.234;2023-10-19T10:14:25;21;21;
79141;PMS5003;68550;-26.480;29.234;2023-10-19T10:19:19;23;22;
79141;PMS5003;68550;-26.480;29.234;2023-10-19T10:21:41;27;26;
79141;PMS5003;68550;-26.480;29.234;2023-10-19T10:24:07;30;29;
79141;PMS5003;68550;-26.480;29.234;2023-10-19T10:26:56;29;29;
79141;PMS5003;68550;-26.480;29.234;2023-10-19T10:31:22;31;30;
79141;PMS5003;68550;-26.480;29.234;2023-10-19T10:33:49;30;29;
79141;PMS5003;68550;-26.480;29.234;2023-10-19T10:36:14;32;30;
79141;PMS5003;68550;-26.480;29.234;2023-10-19T10:38:41;33;33;
79141;PMS5003;68550;-26.480;29.234;2023-10-19T10:41:04;34;34;
79141;PMS5003;68550;-26.480;29.234;2023-10-19T10:43:30;36;35;
79141;PMS5003;68550;-26.480;29.234;2023-10-19T10:48:21;29;29;
79141;PMS5003;68550;-26.480;29.234;2023-10-19T10:50:47;33;32;
79141;PMS5003;68550;-26.480;29.234;2023-10-19T10:53:13;32;31;
79141;PMS5003;68550;-26.480;29.234;2023-10-19T10:55:38;33;31;
79141;PMS5003;68550;-26.480;29.234;2023-10-19T10:58:03;37;37;
79141;PMS5003;68550;-26.480;29.234;2023-10-19T11:00:28;32;31;
79141;PMS5003;68550;-26.480;29.234;2023-10-19T11:05:18;36;34;
79141;PMS5003;68550;-26.480;29.234;2023-10-19T11:10:10;31;30;
79141;PMS5003;68550;-26.480;29.234;2023-10-19T11:12:36;38;35;
79141;PMS5003;68550;-26.480;29.234;2023-10-19T11:15:01;32;32;
79141;PMS5003;68550;-26.480;29.234;2023-10-19T11:17:27;45;42;
79141;PMS5003;68550;-26.480;29.234;2023-10-19T11:19:55;37;32;
79141;PMS5003;68550;-26.480;29.234;2023-10-19T11:22:19;33;32;
79141;PMS5003;68550;-26.480;29.234;2023-10-19T11:24:43;40;39;
79141;PMS5003;68550;-26.480;29.234;2023-10-19T11:27:09;36;36;
79141;PMS5003;68550;-26.480;29.234;2023-10-19T11:29:34;35;34;
79141;PMS5003;68550;-26.480;29.234;2023-10-19T11:31:59;42;41;
79141;PMS5003;68550;-26.480;29.234;2023-10-19T11:34:24;40;39;
79141;PMS5003;68550;-26.480;29.234;2023-10-19T11:36:52;47;46;
79141;PMS5003;68550;-26.480;29.234;2023-10-19T11:39:16;46;44;
79141;PMS5003;68550;-26.480;29.234;2023-10-19T11:41:41;48;45;
79141;PMS5003;68550;-26.480;29.234;2023-10-19T11:44:07;40;39;
79141;PMS5003;68550;-26.480;29.234;2023-10-19T11:46:31;43;41;
79141;PMS5003;68550;-26.480;29.234;2023-10-19T11:48:58;44;41;
79141;PMS5003;68550;-26.480;29.234;2023-10-19T11:51:23;39;38;
79141;PMS5003;68550;-26.480;29.234;2023-10-19T11:53:49;42;41;
79141;PMS5003;68550;-26.480;29.234;2023-10-19T11:56:15;43;40;
79141;PMS5003;68550;-26.480;29.234;2023-10-19T11:58:42;44;43;
79141;PMS5003;68550;-26.480;29.234;2023-10-19T12:01:05;47;44;
79141;PMS5003;68550;-26.480;29.234;2023-10-19T12:03:32;47;47;
79141;PMS5003;68550;-26.480;29.234;2023-10-19T12:05:57;46;45;
79141;PMS5003;68550;-26.480;29.234;2023-10-19T12:08:21;38;37;
79141;PMS5003;68550;-26.480;29.234;2023-10-19T12:10:47;41;41;
79141;PMS5003;68550;-26.480;29.234;2023-10-19T12:13:12;38;38;
79141;PMS5003;68550;-26.480;29.234;2023-10-19T12:15:37;46;44;
79141;PMS5003;68550;-26.480;29.234;2023-10-19T12:18:03;44;41;
79141;PMS5003;68550;-26.480;29.234;2023-10-19T12:20:29;46;45;
79141;PMS5003;68550;-26.480;29.234;2023-10-19T12:22:54;42;40;
79141;PMS5003;68550;-26.480;29.234;2023-10-19T12:25:19;45;43;
79141;PMS5003;68550;-26.480;29.234;2023-10-19T12:27:46;47;46;
79141;PMS5003;68550;-26.480;29.234;2023-10-19T12:30:14;43;41;
79141;PMS5003;68550;-26.480;29.234;2023-10-19T12:32:36;41;40;
79141;PMS5003;68550;-26.480;29.234;2023-10-19T12:35:01;40;39;
79141;PMS5003;68550;-26.480;29.234;2023-10-19T12:37:27;40;39;
79141;PMS5003;68550;-26.480;29.234;2023-10-19T12:39:58;39;37;
79141;PMS5003;68550;-26.480;29.234;2023-10-19T12:42:20;34;33;
79141;PMS5003;68550;-26.480;29.234;2023-10-19T12:44:44;45;42;
79141;PMS5003;68550;-26.480;29.234;2023-10-19T12:47:10;43;40;
79141;PMS5003;68550;-26.480;29.234;2023-10-19T12:49:35;36;35;
79141;PMS5003;68550;-26.480;29.234;2023-10-19T12:52:01;46;45;
79141;PMS5003;68550;-26.480;29.234;2023-10-19T12:54:25;39;36;
79141;PMS5003;68550;-26.480;29.234;2023-10-19T12:56:51;43;38;
79141;PMS5003;68550;-26.480;29.234;2023-10-19T12:59:16;40;38;
79141;PMS5003;68550;-26.480;29.234;2023-10-19T13:01:44;41;36;
79141;PMS5003;68550;-26.480;29.234;2023-10-19T13:04:08;43;40;
79141;PMS5003;68550;-26.480;29.234;2023-10-19T13:06:33;45;36;
79141;PMS5003;68550;-26.480;29.234;2023-10-19T13:08:59;44;41;
79141;PMS5003;68550;-26.480;29.234;2023-10-19T13:11:23;40;38;
79141;PMS5003;68550;-26.480;29.234;2023-10-19T13:13:48;45;39;
79141;PMS5003;68550;-26.480;29.234;2023-10-19T13:16:16;39;36;
79141;PMS5003;68550;-26.480;29.234;2023-10-19T13:18:40;40;34;
79141;PMS5003;68550;-26.480;29.234;2023-10-19T13:21:04;38;35;
79141;PMS5003;68550;-26.480;29.234;2023-10-19T13:23:29;43;42;
79141;PMS5003;68550;-26.480;29.234;2023-10-19T13:25:55;45;41;
79141;PMS5003;68550;-26.480;29.234;2023-10-19T13:28:22;32;31;
79141;PMS5003;68550;-26.480;29.234;2023-10-19T13:30:48;42;40;
79141;PMS5003;68550;-26.480;29.234;2023-10-19T13:33:11;42;39;
79141;PMS5003;68550;-26.480;29.234;2023-10-19T13:35:37;35;34;
79141;PMS5003;68550;-26.480;29.234;2023-10-19T13:38:02;40;39;
79141;PMS5003;68550;-26.480;29.234;2023-10-19T13:40:30;43;42;
79141;PMS5003;68550;-26.480;29.234;2023-10-19T13:42:54;43;40;
79141;PMS5003;68550;-26.480;29.234;2023-10-19T13:45:20;43;42;
79141;PMS5003;68550;-26.480;29.234;2023-10-19T13:47:45;35;35;
79141;PMS5003;68550;-26.480;29.234;2023-10-19T13:50:11;39;35;
79141;PMS5003;68550;-26.480;29.234;2023-10-19T13:52:36;36;35;
79141;PMS5003;68550;-26.480;29.234;2023-10-19T13:55:04;40;36;
79141;PMS5003;68550;-26.480;29.234;2023-10-19T13:57:28;35;33;
79141;PMS5003;68550;-26.480;29.234;2023-10-19T13:59:53;34;33;
79141;PMS5003;68550;-26.480;29.234;2023-10-19T14:02:19;37;36;
79141;PMS5003;68550;-26.480;29.234;2023-10-19T14:04:47;37;35;
79141;PMS5003;68550;-26.480;29.234;2023-10-19T14:07:09;35;32;
79141;PMS5003;68550;-26.480;29.234;2023-10-19T14:09:35;35;33;
79141;PMS5003;68550;-26.480;29.234;2023-10-19T14:12:01;39;37;
79141;PMS5003;68550;-26.480;29.234;2023-10-19T14:14:27;35;35;
79141;PMS5003;68550;-26.480;29.234;2023-10-19T14:16:52;32;31;
79141;PMS5003;68550;-26.480;29.234;2023-10-19T14:19:17;32;32;
79141;PMS5003;68550;-26.480;29.234;2023-10-19T14:21:43;33;33;
79141;PMS5003;68550;-26.480;29.234;2023-10-19T14:24:08;33;32;
79141;PMS5003;68550;-26.480;29.234;2023-10-19T14:26:36;34;33;
79141;PMS5003;68550;-26.480;29.234;2023-10-19T14:28:59;33;31;
79141;PMS5003;68550;-26.480;29.234;2023-10-19T14:31:25;31;31;
79141;PMS5003;68550;-26.480;29.234;2023-10-19T14:33:50;38;38;
79141;PMS5003;68550;-26.480;29.234;2023-10-19T14:36:16;37;33;
79141;PMS5003;68550;-26.480;29.234;2023-10-19T14:38:41;35;34;
79141;PMS5003;68550;-26.480;29.234;2023-10-19T14:41:06;32;31;
79141;PMS5003;68550;-26.480;29.234;2023-10-19T14:43:33;37;35;
79141;PMS5003;68550;-26.480;29.234;2023-10-19T14:45:57;32;32;
79141;PMS5003;68550;-26.480;29.234;2023-10-19T14:48:23;35;35;
79141;PMS5003;68550;-26.480;29.234;2023-10-19T14:50:48;33;32;
79141;PMS5003;68550;-26.480;29.234;2023-10-19T14:53:14;39;38;
79141;PMS5003;68550;-26.480;29.234;2023-10-19T14:55:42;36;35;
79141;PMS5003;68550;-26.480;29.234;2023-10-19T14:58:05;36;35;
79141;PMS5003;68550;-26.480;29.234;2023-10-19T15:00:31;36;35;
79141;PMS5003;68550;-26.480;29.234;2023-10-19T15:02:57;31;30;
79141;PMS5003;68550;-26.480;29.234;2023-10-19T15:05:22;33;31;
79141;PMS5003;68550;-26.480;29.234;2023-10-19T15:07:48;30;30;
79141;PMS5003;68550;-26.480;29.234;2023-10-19T15:10:13;31;31;
79141;PMS5003;68550;-26.480;29.234;2023-10-19T15:12:44;32;30;
79141;PMS5003;68550;-26.480;29.234;2023-10-19T15:15:07;34;34;
79141;PMS5003;68550;-26.480;29.234;2023-10-19T15:19:55;34;33;
79141;PMS5003;68550;-26.480;29.234;2023-10-19T15:22:20;29;29;
79141;PMS5003;68550;-26.480;29.234;2023-10-19T15:24:50;34;33;
79141;PMS5003;68550;-26.480;29.234;2023-10-19T15:27:14;32;32;
79141;PMS5003;68550;-26.480;29.234;2023-10-19T15:29:35;33;33;
79141;PMS5003;68550;-26.480;29.234;2023-10-19T15:32:01;29;29;
79141;PMS5003;68550;-26.480;29.234;2023-10-19T15:34:28;34;34;
79141;PMS5003;68550;-26.480;29.234;2023-10-19T15:36:56;32;31;
79141;PMS5003;68550;-26.480;29.234;2023-10-19T15:39:19;34;33;
79141;PMS5003;68550;-26.480;29.234;2023-10-19T15:41:45;31;31;
79141;PMS5003;68550;-26.480;29.234;2023-10-19T15:44:10;36;35;
79141;PMS5003;68550;-26.480;29.234;2023-10-19T15:46:35;34;33;
79141;PMS5003;68550;-26.480;29.234;2023-10-19T15:49:04;34;32;
79141;PMS5003;68550;-26.480;29.234;2023-10-19T15:51:27;34;33;
79141;PMS5003;68550;-26.480;29.234;2023-10-19T15:53:55;31;30;
79141;PMS5003;68550;-26.480;29.234;2023-10-19T15:56:19;29;29;
79141;PMS5003;68550;-26.480;29.234;2023-10-19T15:58:44;26;26;
79141;PMS5003;68550;-26.480;29.234;2023-10-19T16:01:15;29;29;
79141;PMS5003;68550;-26.480;29.234;2023-10-19T16:03:34;31;31;
79141;PMS5003;68550;-26.480;29.234;2023-10-19T16:06:00;32;32;
79141;PMS5003;68550;-26.480;29.234;2023-10-19T16:08:32;27;27;
79141;PMS5003;68550;-26.480;29.234;2023-10-19T16:10:51;30;29;
79141;PMS5003;68550;-26.480;29.234;2023-10-19T16:13:16;30;30;
79141;PMS5003;68550;-26.480;29.234;2023-10-19T16:15:42;29;28;
79141;PMS5003;68550;-26.480;29.234;2023-10-19T16:18:06;30;30;
79141;PMS5003;68550;-26.480;29.234;2023-10-19T16:20:35;30;28;
79141;PMS5003;68550;-26.480;29.234;2023-10-19T16:22:58;30;30;
79141;PMS5003;68550;-26.480;29.234;2023-10-19T16:25:22;27;27;
79141;PMS5003;68550;-26.480;29.234;2023-10-19T16:27:48;28;27;
79141;PMS5003;68550;-26.480;29.234;2023-10-19T16:30:13;30;28;
79141;PMS5003;68550;-26.480;29.234;2023-10-19T16:32:42;26;26;
79141;PMS5003;68550;-26.480;29.234;2023-10-19T16:37:38;29;29;
79141;PMS5003;68550;-26.480;29.234;2023-10-19T16:39:55;27;27;
79141;PMS5003;68550;-26.480;29.234;2023-10-19T16:42:21;29;27;
79141;PMS5003;68550;-26.480;29.234;2023-10-19T16:44:47;26;26;
79141;PMS5003;68550;-26.480;29.234;2023-10-19T16:47:12;28;28;
79141;PMS5003;68550;-26.480;29.234;2023-10-19T16:49:38;30;29;
79141;PMS5003;68550;-26.480;29.234;2023-10-19T16:52:07;27;26;
79141;PMS5003;68550;-26.480;29.234;2023-10-19T16:54:29;37;34;
79141;PMS5003;68550;-26.480;29.234;2023-10-19T16:56:56;29;28;
79141;PMS5003;68550;-26.480;29.234;2023-10-19T16:59:19;25;25;
79141;PMS5003;68550;-26.480;29.234;2023-10-19T17:01:48;29;27;
79141;PMS5003;68550;-26.480;29.234;2023-10-19T17:04:13;28;27;
79141;PMS5003;68550;-26.480;29.234;2023-10-19T17:06:38;31;29;
79141;PMS5003;68550;-26.480;29.234;2023-10-19T17:11:27;28;26;
79141;PMS5003;68550;-26.480;29.234;2023-10-19T17:13:55;33;33;
79141;PMS5003;68550;-26.480;29.234;2023-10-19T17:16:19;31;29;
79141;PMS5003;68550;-26.480;29.234;2023-10-19T17:18:44;26;26;
79141;PMS5003;68550;-26.480;29.234;2023-10-19T17:21:10;24;24;
79141;PMS5003;68550;-26.480;29.234;2023-10-19T17:23:35;33;31;
79141;PMS5003;68550;-26.480;29.234;2023-10-19T17:26:00;24;24;
79141;PMS5003;68550;-26.480;29.234;2023-10-19T17:28:26;28;28;
79141;PMS5003;68550;-26.480;29.234;2023-10-19T17:30:51;29;29;
79141;PMS5003;68550;-26.480;29.234;2023-10-19T17:33:17;30;29;
79141;PMS5003;68550;-26.480;29.234;2023-10-19T17:40:35;31;30;
79141;PMS5003;68550;-26.480;29.234;2023-10-19T17:42:59;29;28;
79141;PMS5003;68550;-26.480;29.234;2023-10-19T17:45:25;31;30;
79141;PMS5003;68550;-26.480;29.234;2023-10-19T17:47:51;25;25;
79141;PMS5003;68550;-26.480;29.234;2023-10-19T17:50:19;33;32;
79141;PMS5003;68550;-26.480;29.234;2023-10-19T17:52:42;30;30;
79141;PMS5003;68550;-26.480;29.234;2023-10-19T17:55:09;27;27;
79141;PMS5003;68550;-26.480;29.234;2023-10-19T17:57:32;28;28;
79141;PMS5003;68550;-26.480;29.234;2023-10-19T17:59:58;29;28;
79141;PMS5003;68550;-26.480;29.234;2023-10-19T18:04:50;35;35;
79141;PMS5003;68550;-26.480;29.234;2023-10-19T18:07:18;28;28;
79141;PMS5003;68550;-26.480;29.234;2023-10-19T18:12:13;28;28;
79141;PMS5003;68550;-26.480;29.234;2023-10-19T18:16:59;29;29;
79141;PMS5003;68550;-26.480;29.234;2023-10-19T18:19:21;27;27;
79141;PMS5003;68550;-26.480;29.234;2023-10-19T18:21:47;32;31;
79141;PMS5003;68550;-26.480;29.234;2023-10-19T18:24:12;30;30;
79141;PMS5003;68550;-26.480;29.234;2023-10-19T18:26:37;28;28;
79141;PMS5003;68550;-26.480;29.234;2023-10-19T18:29:07;31;30;
79141;PMS5003;68550;-26.480;29.234;2023-10-19T18:31:28;31;31;
79141;PMS5003;68550;-26.480;29.234;2023-10-19T18:36:20;33;33;
79141;PMS5003;68550;-26.480;29.234;2023-10-19T18:38:49;34;34;
79141;PMS5003;68550;-26.480;29.234;2023-10-19T18:41:12;31;31;
79141;PMS5003;68550;-26.480;29.234;2023-10-19T18:43:41;38;36;
79141;PMS5003;68550;-26.480;29.234;2023-10-19T18:46:03;28;28;
79141;PMS5003;68550;-26.480;29.234;2023-10-19T18:48:27;30;30;
79141;PMS5003;68550;-26.480;29.234;2023-10-19T18:50:56;36;36;
79141;PMS5003;68550;-26.480;29.234;2023-10-19T18:53:17;35;34;
79141;PMS5003;68550;-26.480;29.234;2023-10-19T18:55:52;30;30;
79141;PMS5003;68550;-26.480;29.234;2023-10-19T18:58:09;29;29;
79141;PMS5003;68550;-26.480;29.234;2023-10-19T19:00:34;24;24;
79141;PMS5003;68550;-26.480;29.234;2023-10-19T19:03:00;25;24;
79141;PMS5003;68550;-26.480;29.234;2023-10-19T19:05:25;21;21;
79141;PMS5003;68550;-26.480;29.234;2023-10-19T19:07:54;27;25;
79141;PMS5003;68550;-26.480;29.234;2023-10-19T19:10:15;24;24;
79141;PMS5003;68550;-26.480;29.234;2023-10-19T19:12:42;24;23;
79141;PMS5003;68550;-26.480;29.234;2023-10-19T19:15:07;26;26;
79141;PMS5003;68550;-26.480;29.234;2023-10-19T19:17:31;28;27;
79141;PMS5003;68550;-26.480;29.234;2023-10-19T19:19:58;23;23;
79141;PMS5003;68550;-26.480;29.234;2023-10-19T19:22:23;23;22;
79141;PMS5003;68550;-26.480;29.234;2023-10-19T19:24:48;25;25;
79141;PMS5003;68550;-26.480;29.234;2023-10-19T19:27:13;22;21;
79141;PMS5003;68550;-26.480;29.234;2023-10-19T19:29:38;23;22;
79141;PMS5003;68550;-26.480;29.234;2023-10-19T19:32:04;21;19;
79141;PMS5003;68550;-26.480;29.234;2023-10-19T19:34:30;21;20;
79141;PMS5003;68550;-26.480;29.234;2023-10-19T19:36:54;18;18;
79141;PMS5003;68550;-26.480;29.234;2023-10-19T19:39:21;18;17;
79141;PMS5003;68550;-26.480;29.234;2023-10-19T19:41:45;19;18;
79141;PMS5003;68550;-26.480;29.234;2023-10-19T19:44:13;18;18;
79141;PMS5003;68550;-26.480;29.234;2023-10-19T19:49:02;19;18;
79141;PMS5003;68550;-26.480;29.234;2023-10-19T19:53:51;19;19;
79141;PMS5003;68550;-26.480;29.234;2023-10-19T19:56:18;18;17;
79141;PMS5003;68550;-26.480;29.234;2023-10-19T19:58:46;18;17;
79141;PMS5003;68550;-26.480;29.234;2023-10-19T20:01:09;17;17;
79141;PMS5003;68550;-26.480;29.234;2023-10-19T20:03:33;17;17;
79141;PMS5003;68550;-26.480;29.234;2023-10-19T20:05:58;17;16;
79141;PMS5003;68550;-26.480;29.234;2023-10-19T20:08:24;18;18;
79141;PMS5003;68550;-26.480;29.234;2023-10-19T20:10:51;18;17;
79141;PMS5003;68550;-26.480;29.234;2023-10-19T20:13:15;16;16;
79141;PMS5003;68550;-26.480;29.234;2023-10-19T20:15:40;15;15;
79141;PMS5003;68550;-26.480;29.234;2023-10-19T20:18:06;17;17;
79141;PMS5003;68550;-26.480;29.234;2023-10-19T20:20:31;16;16;
79141;PMS5003;68550;-26.480;29.234;2023-10-19T20:22:57;17;17;
79141;PMS5003;68550;-26.480;29.234;2023-10-19T20:25:24;20;19;
79141;PMS5003;68550;-26.480;29.234;2023-10-19T20:27:47;16;15;
79141;PMS5003;68550;-26.480;29.234;2023-10-19T20:30:13;16;16;